Time;durP1;ratioP1;P1;durP2;ratioP2;P2;SDS_P1;SDS_P2;PMS_P1;PMS_P2;Temp;Humidity;BMP_temperature;BMP_pressure;BME280_temperature;BME280_humidity;BME280_pressure;Samples;Min_cycle;Max_cycle;Signal;HPM_P1;HPM_P2
2022/10/29 00:01:28;;;;;;;442.90;75.20;;;;;;;;;;5048776;28;20067;-76
2022/10/29 00:03:54;;;;;;;628.47;82.97;;;;;;;;;;5054419;28;20033;-82
2022/10/29 00:06:22;;;;;;;574.92;81.85;;;;;;;;;;5049183;28;20017;-76
2022/10/29 00:08:48;;;;;;;566.15;79.45;;;;;;;;;;5054139;28;20039;-76
2022/10/29 00:11:17;;;;;;;498.50;74.20;;;;;;;;;;5040931;28;20045;-75
2022/10/29 00:13:43;;;;;;;483.63;72.03;;;;;;;;;;5053337;28;20025;-77
2022/10/29 00:16:15;;;;;;;528.38;78.25;;;;;;;;;;5051205;28;20026;-78
2022/10/29 00:18:41;;;;;;;541.60;82.32;;;;;;;;;;5047719;28;20091;-80
2022/10/29 00:21:08;;;;;;;455.20;78.97;;;;;;;;;;5051246;28;20028;-76
2022/10/29 00:23:34;;;;;;;341.23;71.03;;;;;;;;;;5048598;28;20155;-75
2022/10/29 00:26:01;;;;;;;540.95;90.18;;;;;;;;;;5052489;28;20026;-76
2022/10/29 00:28:27;;;;;;;324.17;73.18;;;;;;;;;;5050762;28;20077;-75
2022/10/29 00:30:53;;;;;;;339.35;73.90;;;;;;;;;;5054350;28;20044;-75
2022/10/29 00:33:20;;;;;;;250.85;67.05;;;;;;;;;;5051849;28;20093;-77
2022/10/29 00:35:55;;;;;;;309.23;68.45;;;;;;;;;;5050127;28;20175;-76
2022/10/29 00:38:21;;;;;;;267.40;65.63;;;;;;;;;;5048544;28;20025;-77
2022/10/29 00:40:47;;;;;;;560.08;92.05;;;;;;;;;;5052085;28;20070;-76
2022/10/29 00:43:14;;;;;;;396.25;72.82;;;;;;;;;;5049631;28;20098;-76
2022/10/29 00:45:48;;;;;;;322.08;69.75;;;;;;;;;;5052194;28;20025;-80
2022/10/29 00:48:14;;;;;;;350.25;74.72;;;;;;;;;;5049833;28;20378;-76
2022/10/29 00:50:40;;;;;;;296.63;64.95;;;;;;;;;;5049928;28;20021;-78
2022/10/29 00:53:06;;;;;;;288.08;63.75;;;;;;;;;;5043349;28;20049;-79
2022/10/29 00:55:32;;;;;;;239.77;59.88;;;;;;;;;;5043143;28;20123;-76
2022/10/29 00:57:59;;;;;;;263.40;63.08;;;;;;;;;;5052187;28;20029;-76
2022/10/29 01:00:25;;;;;;;340.13;69.40;;;;;;;;;;5048652;28;20031;-79
2022/10/29 01:02:51;;;;;;;276.63;61.78;;;;;;;;;;5045207;28;20023;-75
2022/10/29 01:05:19;;;;;;;620.13;91.38;;;;;;;;;;5040376;28;20491;-76
2022/10/29 01:07:46;;;;;;;358.00;67.57;;;;;;;;;;5039207;28;20028;-78
2022/10/29 01:10:12;;;;;;;342.23;64.15;;;;;;;;;;5043784;28;20025;-75
2022/10/29 01:12:53;;;;;;;526.78;77.60;;;;;;;;;;5048456;28;20033;-76
2022/10/29 01:15:19;;;;;;;416.20;63.55;;;;;;;;;;5048622;28;20533;-75
2022/10/29 01:17:52;;;;;;;302.83;57.67;;;;;;;;;;5049930;28;20068;-77
2022/10/29 01:20:23;;;;;;;338.65;60.00;;;;;;;;;;5044447;28;20047;-76
2022/10/29 01:23:08;;;;;;;365.75;58.95;;;;;;;;;;5048772;28;20023;-82
2022/10/29 01:25:52;;;;;;;613.00;81.97;;;;;;;;;;5046636;28;20036;-75
2022/10/29 01:28:18;;;;;;;;;;;;;;;;;;5044362;28;20041;-78
2022/10/29 01:30:50;;;;;;;380.73;59.92;;;;;;;;;;5044904;28;19912;-75
2022/10/29 01:33:19;;;;;;;438.00;74.13;;;;;;;;;;5044890;28;20041;-74
2022/10/29 01:35:51;;;;;;;497.05;78.75;;;;;;;;;;5050131;28;20025;-74
2022/10/29 01:38:38;;;;;;;372.60;66.70;;;;;;;;;;5051011;28;20033;-74
2022/10/29 01:41:21;;;;;;;406.10;65.20;;;;;;;;;;5040035;28;20134;-74
2022/10/29 01:43:50;;;;;;;458.73;74.28;;;;;;;;;;5041888;28;20025;-75
2022/10/29 01:46:18;;;;;;;400.67;66.03;;;;;;;;;;5050018;28;20037;-75
2022/10/29 01:48:47;;;;;;;442.05;71.20;;;;;;;;;;5048824;28;20025;-76
2022/10/29 01:51:18;;;;;;;326.50;65.18;;;;;;;;;;5048734;28;20024;-77
2022/10/29 01:53:44;;;;;;;406.55;72.43;;;;;;;;;;5049572;28;20025;-74
2022/10/29 01:56:10;;;;;;;306.60;59.70;;;;;;;;;;5047799;28;20032;-81
2022/10/29 01:58:36;;;;;;;491.10;73.40;;;;;;;;;;5047832;28;20036;-75
2022/10/29 02:01:08;;;;;;;253.52;59.10;;;;;;;;;;5043270;28;20051;-75
2022/10/29 02:03:38;;;;;;;285.88;62.72;;;;;;;;;;5052263;28;20025;-76
2022/10/29 02:06:16;;;;;;;335.65;63.03;;;;;;;;;;5041596;28;20110;-76
2022/10/29 02:09:00;;;;;;;324.15;66.88;;;;;;;;;;5051124;28;20493;-77
2022/10/29 02:11:31;;;;;;;438.95;71.95;;;;;;;;;;5050449;28;20025;-76
2022/10/29 02:14:05;;;;;;;388.42;73.13;;;;;;;;;;5051733;28;20024;-76
2022/10/29 02:16:32;;;;;;;487.48;76.88;;;;;;;;;;5046116;28;20060;-75
2022/10/29 02:18:59;;;;;;;378.27;70.07;;;;;;;;;;5056010;28;20025;-76
2022/10/29 02:21:25;;;;;;;386.38;70.72;;;;;;;;;;5056076;28;20025;-76
2022/10/29 02:23:51;;;;;;;413.95;74.50;;;;;;;;;;5053543;28;20501;-76
2022/10/29 02:26:17;;;;;;;302.13;67.18;;;;;;;;;;5048909;28;20029;-74
2022/10/29 02:28:43;;;;;;;247.43;61.85;;;;;;;;;;5052195;28;20036;-75
2022/10/29 02:31:10;;;;;;;408.00;74.03;;;;;;;;;;5052641;28;20037;-76
2022/10/29 02:33:36;;;;;;;299.25;69.50;;;;;;;;;;5052073;28;20383;-75
2022/10/29 02:36:02;;;;;;;339.70;65.53;;;;;;;;;;5050775;28;20083;-76
2022/10/29 02:38:28;;;;;;;252.35;63.10;;;;;;;;;;5055533;28;20355;-75
2022/10/29 02:40:54;;;;;;;308.50;65.47;;;;;;;;;;5055793;28;20025;-75
2022/10/29 02:43:20;;;;;;;197.93;54.63;;;;;;;;;;5044064;28;20035;-78
2022/10/29 02:45:46;;;;;;;303.90;68.22;;;;;;;;;;5053845;28;20068;-74
2022/10/29 02:48:12;;;;;;;321.83;67.18;;;;;;;;;;5053858;28;20036;-75
2022/10/29 02:50:38;;;;;;;209.55;57.45;;;;;;;;;;5051350;28;20029;-77
2022/10/29 02:53:04;;;;;;;258.95;63.13;;;;;;;;;;5053825;28;20083;-75
2022/10/29 02:55:30;;;;;;;283.50;63.58;;;;;;;;;;5055591;28;20091;-76
2022/10/29 02:57:56;;;;;;;229.35;62.30;;;;;;;;;;5049405;28;20036;-76
2022/10/29 03:00:22;;;;;;;252.32;60.22;;;;;;;;;;5054743;28;20033;-76
2022/10/29 03:02:51;;;;;;;366.45;68.47;;;;;;;;;;5055170;28;20091;-76
2022/10/29 03:05:17;;;;;;;149.00;52.20;;;;;;;;;;5055352;28;20021;-75
2022/10/29 03:07:43;;;;;;;148.15;49.90;;;;;;;;;;5055668;28;20021;-75
2022/10/29 03:10:09;;;;;;;362.38;70.45;;;;;;;;;;5051913;28;20056;-76
2022/10/29 03:12:35;;;;;;;125.57;47.28;;;;;;;;;;5053236;28;20194;-75
2022/10/29 03:15:01;;;;;;;428.27;68.88;;;;;;;;;;5054923;28;20013;-76
2022/10/29 03:17:27;;;;;;;240.63;56.60;;;;;;;;;;5050131;28;20033;-75
2022/10/29 03:19:53;;;;;;;286.52;60.58;;;;;;;;;;5055451;28;20023;-76
2022/10/29 03:22:19;;;;;;;417.35;73.07;;;;;;;;;;5054666;28;20094;-79
2022/10/29 03:24:46;;;;;;;310.23;61.95;;;;;;;;;;5054316;28;20013;-76
2022/10/29 03:27:12;;;;;;;262.63;57.70;;;;;;;;;;5054728;28;20575;-76
2022/10/29 03:29:38;;;;;;;380.50;67.55;;;;;;;;;;5054820;28;20025;-76
2022/10/29 03:32:04;;;;;;;373.83;67.15;;;;;;;;;;5036943;28;20029;-75
2022/10/29 03:34:30;;;;;;;438.30;71.25;;;;;;;;;;5055030;28;20029;-76
2022/10/29 03:36:56;;;;;;;417.85;70.28;;;;;;;;;;5049601;28;20018;-75
2022/10/29 03:39:22;;;;;;;268.98;55.35;;;;;;;;;;5049778;28;20021;-76
2022/10/29 03:41:48;;;;;;;395.88;67.85;;;;;;;;;;5053305;28;20078;-75
2022/10/29 03:44:14;;;;;;;388.58;69.55;;;;;;;;;;5054104;28;20100;-76
2022/10/29 03:46:40;;;;;;;115.15;47.72;;;;;;;;;;5050221;28;20022;-78
2022/10/29 03:49:06;;;;;;;213.35;55.20;;;;;;;;;;5054372;28;20025;-75
2022/10/29 03:51:32;;;;;;;378.38;65.07;;;;;;;;;;5052048;28;20036;-76
2022/10/29 03:53:58;;;;;;;585.72;75.85;;;;;;;;;;5048828;28;20032;-75
2022/10/29 03:56:24;;;;;;;480.63;72.15;;;;;;;;;;5054513;28;20056;-75
2022/10/29 03:58:50;;;;;;;239.35;52.78;;;;;;;;;;5051994;28;20029;-77
2022/10/29 04:01:16;;;;;;;332.58;57.42;;;;;;;;;;5034215;28;20036;-75
2022/10/29 04:03:42;;;;;;;277.92;55.50;;;;;;;;;;5039437;28;20074;-75
2022/10/29 04:06:10;;;;;;;219.20;51.67;;;;;;;;;;5039780;28;20102;-75
2022/10/29 04:08:36;;;;;;;338.15;56.08;;;;;;;;;;5061238;28;20100;-75
2022/10/29 04:11:02;;;;;;;298.98;53.30;;;;;;;;;;5055014;28;20351;-75
2022/10/29 04:13:28;;;;;;;304.05;51.47;;;;;;;;;;5053888;28;20381;-75
2022/10/29 04:15:55;;;;;;;464.05;65.75;;;;;;;;;;5044669;28;20032;-74
2022/10/29 04:18:21;;;;;;;522.67;65.95;;;;;;;;;;5049547;28;20482;-75
2022/10/29 04:20:47;;;;;;;529.65;68.00;;;;;;;;;;5053729;28;20047;-76
2022/10/29 04:23:13;;;;;;;493.20;63.10;;;;;;;;;;5046415;28;20021;-75
2022/10/29 04:25:39;;;;;;;373.23;61.15;;;;;;;;;;5048415;28;20029;-75
2022/10/29 04:28:05;;;;;;;361.08;56.35;;;;;;;;;;5042941;28;20546;-75
2022/10/29 04:30:31;;;;;;;308.00;52.65;;;;;;;;;;5049524;28;20044;-75
2022/10/29 04:32:58;;;;;;;401.30;65.93;;;;;;;;;;5046670;28;20037;-77
2022/10/29 04:35:24;;;;;;;260.67;57.10;;;;;;;;;;5053392;28;20028;-75
2022/10/29 04:37:50;;;;;;;288.40;61.80;;;;;;;;;;5053265;28;20469;-75
2022/10/29 04:40:17;;;;;;;368.33;57.72;;;;;;;;;;5046004;28;20028;-76
2022/10/29 04:42:43;;;;;;;304.08;51.35;;;;;;;;;;5053503;28;20021;-75
2022/10/29 04:45:09;;;;;;;354.42;59.25;;;;;;;;;;5053522;28;20493;-76
2022/10/29 04:47:35;;;;;;;375.83;58.63;;;;;;;;;;5053373;28;20048;-75
2022/10/29 04:50:01;;;;;;;315.90;56.83;;;;;;;;;;5034366;28;20033;-79
2022/10/29 04:52:27;;;;;;;381.55;61.28;;;;;;;;;;5030570;28;20055;-75
2022/10/29 04:54:53;;;;;;;341.00;55.80;;;;;;;;;;5051624;28;20029;-75
2022/10/29 04:57:19;;;;;;;533.78;62.40;;;;;;;;;;5045695;28;20025;-73
2022/10/29 04:59:45;;;;;;;260.88;51.80;;;;;;;;;;5046939;28;20029;-74
2022/10/29 05:02:11;;;;;;;314.05;56.05;;;;;;;;;;5050779;28;20025;-74
2022/10/29 05:04:37;;;;;;;369.02;60.63;;;;;;;;;;5047479;28;20035;-75
2022/10/29 05:07:03;;;;;;;337.67;55.22;;;;;;;;;;5044173;28;20032;-75
2022/10/29 05:09:29;;;;;;;320.77;59.30;;;;;;;;;;5051009;28;20028;-74
2022/10/29 05:11:55;;;;;;;451.27;62.85;;;;;;;;;;5052715;28;20036;-76
2022/10/29 05:14:21;;;;;;;234.10;50.38;;;;;;;;;;5050049;28;20104;-77
2022/10/29 05:16:47;;;;;;;243.75;51.70;;;;;;;;;;5052475;28;20025;-75
2022/10/29 05:19:13;;;;;;;101.80;39.13;;;;;;;;;;5052818;28;20021;-74
2022/10/29 05:21:39;;;;;;;245.90;52.70;;;;;;;;;;5052103;28;20146;-76
2022/10/29 05:24:06;;;;;;;134.20;42.65;;;;;;;;;;5048510;28;20045;-77
2022/10/29 05:26:32;;;;;;;257.90;51.65;;;;;;;;;;5054159;28;20503;-77
2022/10/29 05:29:01;;;;;;;245.68;49.33;;;;;;;;;;5053731;28;20045;-74
2022/10/29 05:31:27;;;;;;;420.98;63.58;;;;;;;;;;5052718;28;20123;-75
2022/10/29 05:33:53;;;;;;;222.95;50.65;;;;;;;;;;5050747;28;20032;-75
2022/10/29 05:36:22;;;;;;;242.18;49.13;;;;;;;;;;5051237;28;20051;-74
2022/10/29 05:38:48;;;;;;;293.88;53.38;;;;;;;;;;5056285;28;20033;-76
2022/10/29 05:41:14;;;;;;;278.65;54.83;;;;;;;;;;5051919;28;20028;-73
2022/10/29 05:43:40;;;;;;;211.50;50.30;;;;;;;;;;5055692;28;20028;-77
2022/10/29 05:46:06;;;;;;;274.23;52.70;;;;;;;;;;5051960;28;20021;-73
2022/10/29 05:48:32;;;;;;;340.50;59.97;;;;;;;;;;5056434;28;20141;-73
2022/10/29 05:51:03;;;;;;;267.00;56.17;;;;;;;;;;5050852;28;20120;-84
2022/10/29 05:53:29;;;;;;;427.40;54.92;;;;;;;;;;5054656;28;20068;-74
2022/10/29 05:55:55;;;;;;;197.75;44.70;;;;;;;;;;5053453;28;20465;-75
2022/10/29 05:58:21;;;;;;;126.90;41.55;;;;;;;;;;5043821;28;20025;-75
2022/10/29 06:00:47;;;;;;;149.15;39.38;;;;;;;;;;5049249;28;20086;-77
2022/10/29 06:03:14;;;;;;;189.98;42.10;;;;;;;;;;5046205;28;20076;-74
2022/10/29 06:05:40;;;;;;;281.23;46.15;;;;;;;;;;5048299;28;20025;-75
2022/10/29 06:08:06;;;;;;;149.10;37.80;;;;;;;;;;5049006;28;20034;-74
2022/10/29 06:10:33;;;;;;;555.03;57.92;;;;;;;;;;5052135;28;20083;-74
2022/10/29 06:12:59;;;;;;;391.77;43.80;;;;;;;;;;5045502;28;20041;-73
2022/10/29 06:15:25;;;;;;;198.93;39.40;;;;;;;;;;5052560;28;20024;-74
2022/10/29 06:17:51;;;;;;;706.85;56.45;;;;;;;;;;5051690;28;20107;-79
2022/10/29 06:20:19;;;;;;;211.18;45.40;;;;;;;;;;5053503;28;20049;-75
2022/10/29 06:22:45;;;;;;;276.15;43.47;;;;;;;;;;5051744;28;20029;-75
2022/10/29 06:25:11;;;;;;;305.73;47.75;;;;;;;;;;5054216;28;20100;-74
2022/10/29 06:27:37;;;;;;;177.18;49.63;;;;;;;;;;5032225;28;20183;-75
2022/10/29 06:30:04;;;;;;;298.08;53.45;;;;;;;;;;5023657;28;20108;-75
2022/10/29 06:32:30;;;;;;;219.55;47.00;;;;;;;;;;5024906;28;20108;-76
2022/10/29 06:34:56;;;;;;;252.20;39.40;;;;;;;;;;5028862;28;20109;-76
2022/10/29 06:37:22;;;;;;;622.83;56.38;;;;;;;;;;5033337;28;20029;-74
2022/10/29 06:39:48;;;;;;;600.58;163.30;;;;;;;;;;5025342;28;20061;-73
2022/10/29 06:42:14;;;;;;;604.20;57.28;;;;;;;;;;5023997;28;20033;-74
2022/10/29 06:44:40;;;;;;;492.88;44.40;;;;;;;;;;5031979;28;20029;-75
2022/10/29 06:47:06;;;;;;;484.02;47.78;;;;;;;;;;5026652;28;20088;-75
2022/10/29 06:49:32;;;;;;;322.40;40.28;;;;;;;;;;5020194;28;20036;-72
2022/10/29 06:51:58;;;;;;;230.98;37.85;;;;;;;;;;5026082;28;20105;-74
2022/10/29 06:54:25;;;;;;;580.92;49.35;;;;;;;;;;5026614;28;20036;-74
2022/10/29 06:56:51;;;;;;;509.17;50.25;;;;;;;;;;5024018;28;20104;-74
2022/10/29 06:59:17;;;;;;;261.27;36.72;;;;;;;;;;5030561;28;20042;-73
2022/10/29 07:01:45;;;;;;;487.92;46.53;;;;;;;;;;5022733;28;21492;-75
2022/10/29 07:04:11;;;;;;;459.02;43.58;;;;;;;;;;5031528;28;20044;-75
2022/10/29 07:09:22;;;;;;;348.60;36.42;;;;;;;;;;5026636;28;20121;-74
2022/10/29 07:11:51;;;;;;;117.50;29.17;;;;;;;;;;5027159;28;20034;-74
2022/10/29 07:14:17;;;;;;;155.85;31.08;;;;;;;;;;5021563;28;20390;-76
2022/10/29 07:16:43;;;;;;;263.75;36.35;;;;;;;;;;5030473;28;20112;-74
2022/10/29 07:19:09;;;;;;;209.77;34.22;;;;;;;;;;5022661;28;20034;-73
2022/10/29 07:21:35;;;;;;;134.75;34.58;;;;;;;;;;5021773;28;20034;-75
2022/10/29 07:24:01;;;;;;;148.82;33.97;;;;;;;;;;5019111;28;20113;-76
2022/10/29 07:26:27;;;;;;;256.17;42.53;;;;;;;;;;5024328;28;20025;-75
2022/10/29 07:29:00;;;;;;;227.50;40.30;;;;;;;;;;5023575;28;20042;-75
2022/10/29 07:31:26;;;;;;;237.50;39.30;;;;;;;;;;5020894;28;20384;-74
2022/10/29 07:37:15;;;;;;;179.45;36.13;;;;;;;;;;4925179;29;20390;-75
2022/10/29 07:39:41;;;;;;;130.20;33.38;;;;;;;;;;4924232;29;20036;-74
2022/10/29 07:42:07;;;;;;;129.55;32.35;;;;;;;;;;4934793;29;20474;-75
2022/10/29 07:44:33;;;;;;;70.45;26.73;;;;;;;;;;4926476;29;20509;-75
2022/10/29 07:47:01;;;;;;;97.70;30.85;;;;;;;;;;4912334;28;20035;-75
2022/10/29 07:49:28;;;;;;;48.33;27.13;;;;;;;;;;4897496;29;20040;-74
2022/10/29 07:51:54;;;;;;;63.72;25.38;;;;;;;;;;4929473;29;20127;-74
2022/10/29 07:54:20;;;;;;;46.95;25.90;;;;;;;;;;4925104;29;20137;-74
2022/10/29 07:56:46;;;;;;;36.95;23.02;;;;;;;;;;4928361;29;20036;-74
2022/10/29 07:59:13;;;;;;;30.77;20.80;;;;;;;;;;4943123;29;20374;-73
2022/10/29 08:01:40;;;;;;;23.23;17.60;;;;;;;;;;4930794;29;20050;-73
2022/10/29 08:04:06;;;;;;;20.80;16.50;;;;;;;;;;4936672;29;20564;-74
2022/10/29 08:06:32;;;;;;;27.08;15.20;;;;;;;;;;4939687;29;20051;-75
2022/10/29 08:08:59;;;;;;;20.20;14.07;;;;;;;;;;4929883;29;20028;-73
2022/10/29 08:11:25;;;;;;;20.38;15.13;;;;;;;;;;4939756;28;20043;-73
2022/10/29 08:13:51;;;;;;;27.13;15.27;;;;;;;;;;5002531;28;20045;-73
2022/10/29 08:16:17;;;;;;;24.10;15.77;;;;;;;;;;5038133;28;20397;-74
2022/10/29 08:18:43;;;;;;;67.78;20.20;;;;;;;;;;5034756;28;20087;-74
2022/10/29 08:21:10;;;;;;;24.77;20.05;;;;;;;;;;5024628;28;20052;-74
2022/10/29 08:23:36;;;;;;;33.20;21.83;;;;;;;;;;5023975;28;20029;-75
2022/10/29 08:26:02;;;;;;;31.48;21.35;;;;;;;;;;5030280;28;20042;-73
2022/10/29 08:28:29;;;;;;;27.88;22.00;;;;;;;;;;5029948;28;20065;-74
2022/10/29 08:30:55;;;;;;;27.27;23.38;;;;;;;;;;5031636;28;20506;-75
2022/10/29 08:33:21;;;;;;;28.50;22.88;;;;;;;;;;5038349;28;20467;-74
2022/10/29 08:35:47;;;;;;;29.45;24.75;;;;;;;;;;5025485;28;20482;-75
2022/10/29 08:38:14;;;;;;;29.23;23.63;;;;;;;;;;5042149;28;20025;-74
2022/10/29 08:41:06;;;;;;;30.25;23.95;;;;;;;;;;5026459;28;20075;-73
2022/10/29 08:43:51;;;;;;;27.88;23.75;;;;;;;;;;4989556;28;20042;-73
2022/10/29 08:46:20;;;;;;;31.05;24.55;;;;;;;;;;5015235;28;20042;-74
2022/10/29 08:48:48;;;;;;;31.55;25.60;;;;;;;;;;5020278;28;20116;-74
2022/10/29 08:51:28;;;;;;;37.85;26.73;;;;;;;;;;5015038;28;20030;-74
2022/10/29 08:53:56;;;;;;;35.50;27.17;;;;;;;;;;5019577;28;20065;-74
2022/10/29 08:56:33;;;;;;;50.38;26.88;;;;;;;;;;5025814;28;20348;-75
2022/10/29 08:58:59;;;;;;;45.45;29.65;;;;;;;;;;5029332;28;20021;-75
2022/10/29 09:01:25;;;;;;;41.45;27.48;;;;;;;;;;5022446;28;20032;-75
2022/10/29 09:03:51;;;;;;;50.10;26.60;;;;;;;;;;5031668;28;20394;-75
2022/10/29 09:06:24;;;;;;;57.90;26.20;;;;;;;;;;5032656;28;20032;-74
2022/10/29 09:09:10;;;;;;;100.57;22.50;;;;;;;;;;5030138;28;20036;-74
2022/10/29 09:11:47;;;;;;;64.97;25.45;;;;;;;;;;5022726;28;20155;-74
2022/10/29 09:14:13;;;;;;;40.55;27.58;;;;;;;;;;5028724;28;20040;-74
2022/10/29 09:16:54;;;;;;;46.15;27.20;;;;;;;;;;5031778;28;20040;-75
2022/10/29 09:19:28;;;;;;;39.03;29.02;;;;;;;;;;5024369;28;20083;-76
2022/10/29 09:22:08;;;;;;;47.15;27.83;;;;;;;;;;5026685;28;20427;-74
2022/10/29 09:24:42;;;;;;;49.13;29.40;;;;;;;;;;5025473;28;20109;-74
2022/10/29 09:27:35;;;;;;;44.45;31.95;;;;;;;;;;5026586;28;20030;-73
2022/10/29 09:30:09;;;;;;;36.53;27.45;;;;;;;;;;5028678;28;20072;-74
2022/10/29 09:32:39;;;;;;;34.33;25.67;;;;;;;;;;5021353;28;20037;-74
2022/10/29 09:35:13;;;;;;;34.15;26.08;;;;;;;;;;5022664;28;20022;-74
2022/10/29 09:37:48;;;;;;;40.28;27.35;;;;;;;;;;5025266;28;20033;-73
2022/10/29 09:40:33;;;;;;;33.22;25.60;;;;;;;;;;5020329;28;20053;-74
2022/10/29 09:43:07;;;;;;;30.88;25.00;;;;;;;;;;5020576;28;20045;-73
2022/10/29 09:46:00;;;;;;;31.58;24.40;;;;;;;;;;5021092;28;20022;-74
2022/10/29 09:48:44;;;;;;;33.10;24.10;;;;;;;;;;5017137;28;20384;-75
2022/10/29 09:51:10;;;;;;;38.25;25.75;;;;;;;;;;5027663;28;20032;-75
2022/10/29 09:53:37;;;;;;;33.95;26.83;;;;;;;;;;5026353;28;20037;-74
2022/10/29 09:56:06;;;;;;;69.25;26.52;;;;;;;;;;5028731;28;20032;-74
2022/10/29 09:58:36;;;;;;;33.88;25.80;;;;;;;;;;5030845;28;20055;-73
2022/10/29 10:01:02;;;;;;;37.65;27.27;;;;;;;;;;5026855;28;20033;-73
2022/10/29 10:03:44;;;;;;;35.10;26.80;;;;;;;;;;5016181;28;20641;-75
2022/10/29 10:06:12;;;;;;;35.97;27.30;;;;;;;;;;5030112;28;20028;-73
2022/10/29 10:08:56;;;;;;;36.92;26.33;;;;;;;;;;5021748;28;20021;-75
2022/10/29 10:11:22;;;;;;;35.95;26.90;;;;;;;;;;5023832;28;20502;-73
2022/10/29 10:13:59;;;;;;;33.55;27.13;;;;;;;;;;5023934;28;20030;-75
2022/10/29 10:16:26;;;;;;;34.65;26.23;;;;;;;;;;5022945;28;20032;-72
2022/10/29 10:18:53;;;;;;;35.13;27.02;;;;;;;;;;5024864;28;20104;-72
2022/10/29 10:21:26;;;;;;;37.97;27.80;;;;;;;;;;5028700;28;20394;-73
2022/10/29 10:23:52;;;;;;;;;;;;;;;;;;5017401;28;20375;-72
2022/10/29 10:26:27;;;;;;;38.10;27.05;;;;;;;;;;5025709;28;19916;-73
2022/10/29 10:29:12;;;;;;;35.00;27.63;;;;;;;;;;5035685;28;20136;-72
2022/10/29 10:31:42;;;;;;;34.58;27.25;;;;;;;;;;5041602;28;20112;-73
2022/10/29 10:34:14;;;;;;;42.40;28.67;;;;;;;;;;5043350;28;20120;-73
2022/10/29 10:36:41;;;;;;;45.05;31.50;;;;;;;;;;5056115;28;20017;-73
2022/10/29 10:39:18;;;;;;;46.00;30.15;;;;;;;;;;5054891;28;20056;-74
2022/10/29 10:41:44;;;;;;;46.42;31.85;;;;;;;;;;5058381;28;20095;-74
2022/10/29 10:44:12;;;;;;;47.70;32.53;;;;;;;;;;5048927;28;20034;-74
2022/10/29 10:46:40;;;;;;;49.33;35.78;;;;;;;;;;5055281;28;20033;-75
2022/10/29 10:49:12;;;;;;;48.22;33.53;;;;;;;;;;5052903;28;20025;-74
2022/10/29 10:51:42;;;;;;;53.00;34.35;;;;;;;;;;5063039;28;20032;-73
2022/10/29 10:54:29;;;;;;;45.50;33.70;;;;;;;;;;5058823;28;20033;-74
2022/10/29 10:57:03;;;;;;;47.83;34.00;;;;;;;;;;5055365;28;20049;-73
2022/10/29 10:59:49;;;;;;;49.80;36.42;;;;;;;;;;5051521;28;20037;-74
2022/10/29 11:02:20;;;;;;;44.47;34.53;;;;;;;;;;5041052;28;20068;-73
2022/10/29 11:04:49;;;;;;;46.90;34.40;;;;;;;;;;5055627;28;20072;-74
2022/10/29 11:07:17;;;;;;;45.83;32.92;;;;;;;;;;5057048;28;20029;-73
2022/10/29 11:09:46;;;;;;;46.35;34.60;;;;;;;;;;5053539;28;20029;-74
2022/10/29 11:12:19;;;;;;;46.10;36.15;;;;;;;;;;5050570;28;20021;-74
2022/10/29 11:14:48;;;;;;;48.45;35.45;;;;;;;;;;5046712;28;20025;-73
2022/10/29 11:17:36;;;;;;;52.53;35.72;;;;;;;;;;5054200;28;20104;-74
2022/10/29 11:20:06;;;;;;;48.35;36.03;;;;;;;;;;5058937;28;20048;-74
2022/10/29 11:22:37;;;;;;;52.28;36.20;;;;;;;;;;5059756;28;20048;-74
2022/10/29 11:25:04;;;;;;;47.85;36.85;;;;;;;;;;5051738;28;20032;-74
2022/10/29 11:27:45;;;;;;;49.08;37.03;;;;;;;;;;5051776;28;20029;-74
2022/10/29 11:30:12;;;;;;;53.90;38.97;;;;;;;;;;5057315;28;20043;-74
2022/10/29 11:32:46;;;;;;;56.83;39.75;;;;;;;;;;5052310;28;20041;-74
2022/10/29 11:35:12;;;;;;;;;;;;;;;;;;5059852;28;20021;-74
2022/10/29 11:37:49;;;;;;;60.00;41.85;;;;;;;;;;5052923;28;19909;-74
2022/10/29 11:40:22;;;;;;;56.97;40.58;;;;;;;;;;5051418;28;20023;-73
2022/10/29 11:42:49;;;;;;;58.63;43.42;;;;;;;;;;5060084;28;20024;-74
2022/10/29 11:45:22;;;;;;;64.43;44.92;;;;;;;;;;5055257;28;20490;-73
2022/10/29 11:48:02;;;;;;;65.18;44.30;;;;;;;;;;5049555;28;20481;-74
2022/10/29 11:50:39;;;;;;;59.25;42.70;;;;;;;;;;5057120;28;20021;-73
2022/10/29 11:53:34;;;;;;;60.25;42.60;;;;;;;;;;5055755;28;20033;-74
2022/10/29 11:56:03;;;;;;;59.60;44.22;;;;;;;;;;4979922;28;20027;-74
2022/10/29 11:58:38;;;;;;;55.58;40.30;;;;;;;;;;4972847;28;20642;-74
2022/10/29 12:01:07;;;;;;;53.47;41.28;;;;;;;;;;4973984;28;20035;-74
2022/10/29 12:03:42;;;;;;;55.40;41.95;;;;;;;;;;4981652;28;20033;-73
2022/10/29 12:06:15;;;;;;;55.80;41.45;;;;;;;;;;4978754;28;20480;-73
2022/10/29 12:09:01;;;;;;;54.80;41.00;;;;;;;;;;4972249;28;20102;-73
2022/10/29 12:11:49;;;;;;;51.97;41.33;;;;;;;;;;4973731;28;20120;-73
2022/10/29 12:14:18;;;;;;;56.83;41.75;;;;;;;;;;4976407;28;20045;-73
2022/10/29 12:16:55;;;;;;;54.30;41.42;;;;;;;;;;4971419;28;20065;-74
2022/10/29 12:19:29;;;;;;;55.60;42.22;;;;;;;;;;4974769;28;20089;-73
2022/10/29 12:22:00;;;;;;;52.70;40.25;;;;;;;;;;4971579;28;20030;-73
2022/10/29 12:24:48;;;;;;;55.30;40.50;;;;;;;;;;4974465;28;20096;-74
2022/10/29 12:27:28;;;;;;;51.58;40.20;;;;;;;;;;4978086;28;20549;-74
2022/10/29 12:30:10;;;;;;;51.22;40.03;;;;;;;;;;4974831;28;20043;-74
2022/10/29 12:32:39;;;;;;;48.95;39.63;;;;;;;;;;5012016;28;20049;-74
2022/10/29 12:35:25;;;;;;;48.90;38.58;;;;;;;;;;5050744;28;20107;-74
2022/10/29 12:37:55;;;;;;;50.60;39.53;;;;;;;;;;5056699;28;20099;-73
2022/10/29 12:40:23;;;;;;;51.15;40.67;;;;;;;;;;5055066;28;20033;-75
2022/10/29 12:42:50;;;;;;;51.83;39.70;;;;;;;;;;5048602;28;20031;-74
2022/10/29 12:45:49;;;;;;;49.38;39.45;;;;;;;;;;5061223;28;20498;-74
2022/10/29 12:48:38;;;;;;;53.70;39.38;;;;;;;;;;4978778;28;20034;-74
2022/10/29 12:51:04;;;;;;;52.60;39.38;;;;;;;;;;4931056;29;20040;-73
2022/10/29 12:53:42;;;;;;;51.53;38.67;;;;;;;;;;4932942;29;20136;-74
2022/10/29 12:56:09;;;;;;;52.35;38.90;;;;;;;;;;4939065;29;20051;-72
2022/10/29 12:58:44;;;;;;;52.08;37.97;;;;;;;;;;4939804;28;20078;-72
2022/10/29 13:01:25;;;;;;;50.97;39.35;;;;;;;;;;4933279;29;20479;-73
2022/10/29 13:03:54;;;;;;;47.60;37.70;;;;;;;;;;4933814;29;20453;-73
2022/10/29 13:06:39;;;;;;;51.55;38.75;;;;;;;;;;4930376;29;20123;-74
2022/10/29 13:09:22;;;;;;;52.95;38.15;;;;;;;;;;4930324;29;20040;-73
2022/10/29 13:11:48;;;;;;;47.80;37.45;;;;;;;;;;4933274;29;20513;-72
2022/10/29 13:14:19;;;;;;;48.22;36.78;;;;;;;;;;4937156;29;20054;-72
2022/10/29 13:16:51;;;;;;;49.65;36.28;;;;;;;;;;4932498;29;20032;-74
2022/10/29 13:19:44;;;;;;;49.15;37.90;;;;;;;;;;4929917;29;20039;-75
2022/10/29 13:22:14;;;;;;;49.92;37.83;;;;;;;;;;4931024;29;20040;-75
2022/10/29 13:24:42;;;;;;;50.35;36.42;;;;;;;;;;4992327;28;20080;-72
2022/10/29 13:27:11;;;;;;;50.45;38.35;;;;;;;;;;5011104;28;20400;-73
2022/10/29 13:29:48;;;;;;;50.90;38.05;;;;;;;;;;5043623;28;20056;-72
2022/10/29 13:32:31;;;;;;;49.95;37.53;;;;;;;;;;5055285;28;20096;-73
2022/10/29 13:34:59;;;;;;;45.63;35.83;;;;;;;;;;5048046;28;20021;-73
2022/10/29 13:38:01;;;;;;;52.67;37.38;;;;;;;;;;5054310;28;20028;-72
2022/10/29 13:40:22;;;;;;;52.67;37.75;;;;;;;;;;5049576;28;20025;-72
2022/10/29 13:43:18;;;;;;;51.58;37.63;;;;;;;;;;5053008;28;20026;-73
2022/10/29 13:46:03;;;;;;;47.25;36.70;;;;;;;;;;5027365;28;20041;-73
2022/10/29 13:48:34;;;;;;;49.10;37.83;;;;;;;;;;5052795;28;20028;-72
2022/10/29 13:51:03;;;;;;;49.55;36.95;;;;;;;;;;5055295;28;20061;-73
2022/10/29 13:53:39;;;;;;;48.63;37.00;;;;;;;;;;5064135;28;20036;-73
2022/10/29 13:56:08;;;;;;;51.53;37.97;;;;;;;;;;5063597;28;20037;-72
2022/10/29 13:58:36;;;;;;;50.50;36.95;;;;;;;;;;5053207;28;20029;-73
2022/10/29 14:01:07;;;;;;;49.92;36.67;;;;;;;;;;5035271;28;20387;-73
2022/10/29 14:03:38;;;;;;;48.20;37.17;;;;;;;;;;5039725;28;20022;-73
2022/10/29 14:06:11;;;;;;;51.22;37.83;;;;;;;;;;5032432;28;20025;-72
2022/10/29 14:08:43;;;;;;;47.15;35.95;;;;;;;;;;5032165;28;20037;-73
2022/10/29 14:11:27;;;;;;;49.10;35.70;;;;;;;;;;5031898;28;20037;-74
2022/10/29 14:13:56;;;;;;;48.30;36.97;;;;;;;;;;5017332;28;20398;-72
2022/10/29 14:16:31;;;;;;;50.20;35.28;;;;;;;;;;5039122;28;20159;-74
2022/10/29 14:18:57;;;;;;;47.88;35.60;;;;;;;;;;5041137;28;20486;-74
2022/10/29 14:21:25;;;;;;;47.75;36.53;;;;;;;;;;5042399;28;20474;-75
2022/10/29 14:24:07;;;;;;;47.78;36.15;;;;;;;;;;5040079;28;20075;-74
2022/10/29 14:26:35;;;;;;;48.78;37.35;;;;;;;;;;5022340;28;20466;-74
2022/10/29 14:29:13;;;;;;;51.53;38.00;;;;;;;;;;5039842;28;20060;-74
2022/10/29 14:31:39;;;;;;;54.47;37.10;;;;;;;;;;5042851;28;20029;-74
2022/10/29 14:34:07;;;;;;;54.22;39.47;;;;;;;;;;5036309;28;20036;-75